Terminal Aerodrome Forecast
Issued by NWS

Home | Current Version | Previous Version | Text Only | Print | Product List | Glossary On
Versions: 1 2 3 4 5 6 7 8 9 10 11 12 13 14 15
000
FTUS46 KSEW 222320
TAFHQM
TAF
KHQM 222320Z 2300/2324 27012KT P6SM SCT250
     FM230400 25006KT P6SM SCT250
     FM231000 26006KT P6SM BKN010
     FM231400 26005KT 2SM BR OVC003
     FM231900 28015G25KT 6SM BR OVC015=

USA.gov is the U.S. government's official web portal to all federal, state and local government web resources and services.